Hlavní strana
METAR-TAF:

METAR-TAF

Letiště :

Lecce, Itálie

zeměpisná šířka: 40-14N, zeměpisná délka: 018-09E, výška: 48 m

Aktuální stav počasí

Zpráva byla vytvořena před 31 minutami, v 08:55 UTC
Severní vítr 6 kt
Teplota 13°C
Vlhkost vzduchu 88%
Tlak 1007 hPa
Viditelnost 10 km a více
Polojasno ve výšce 2000 ft
Oblačno až skoro zataženo ve výšce 3000 ft
slabý déšť

METAR: LIBN 110855Z 01006KT 9999 -RA SCT020 BKN030 13/11 Q1007 RMK OVC VIS MIN 9999 WIND THR14 02007KT WIND THR32 01006KT BLU

Čas: 10:26 (09:26 UTC)

Předpověď počasí

Zpráva byla vytvořena před 1 hodinou a 26 minutami, v 08:00 UTC
Předpověď platná od 11 v 09 UTC do 11 v 18 UTC
Severoseverovýchodní vítr 15 kt
Viditelnost 10 km a více
Polojasno ve výšce 2000 ft
Oblačno až skoro zataženo ve výšce 3000 ft
Dočasný
od 11 v 09 UTC do 11 v 12 UTC
Viditelnost: 7000 m
déšť

TAF: LIBN 110800Z 1109/1118 02015KT 9999 SCT020 BKN030 TEMPO 1109/1112 7000 RA

Stav a předpovědi počasí z více než 4 000 letišť (zprávy METAR a TAF).

Červené a žluté tečky na mapě představují dostupné meteorologické stanice.

Když kurzor umístíte na tečku, zobrazí se název stanice.

Pak kliknutím zobrazíte stav a předpověď počasí.

Chcete-li změnit mapu, kliknutím na zelené tlačítko se znaménkem +mapu přiblížíte, kliknutím na zelené tlačítko se znaménkem – mapu oddálíte a kliknutím na zelené šipky přejdete na sousední mapy.


METAR-TAF: